Sekiu, Washington
Current Conditions -  °F | °C
As of 2:09 PM on Tuesday 25 Nov 2014 (Local Time) from KUIL Reporting Station
Light Rain Light Rain  
Wind Chill: 54°   Ceiling: 300
Heat Index: 54°   Visibility: 1.2mi
Dew Point: 54°   Wind: 10mph
Humidity: 100%   Direction: 210°SSW
Pressure: 30.15"   Gusts: 17mph
Location:  48.26°N, 124.3°W
Report Text: KUIL 252209Z AUTO 21009G15KT 1 1/4SM -RA BR OVC003 12/12 A3015 RMK AO2 RAE2159B05 P0000 T01220122
Loading
Personal Weather Stations






























Interactive Weather Map New forecast layout! Learn more

10-Day Weather Forecast

Advertisements
Track Severe Weather on mobile